Salisbury, United Kingdom
Current Conditions -  °F | °C
As of 4:50 AM on Saturday 20 Dec 2014 (Local Time) from EGDM Reporting Station
Broken Clouds Broken Clouds  
Wind Chill: 35°   Ceiling: 3700
Heat Index: 43°   Visibility: 6mi
Dew Point: 39°   Wind: 16mph
Humidity: 87%   Direction: 270°W
Pressure: 30.27"   Gusts: NA
Location:  51.07°N, 1.8°W
Report Text: EGDM 200450Z AUTO 27014KT 9999 FEW022/// BKN037/// 06/04 Q1025
Loading
Personal Weather Stations






























Interactive Weather Map New forecast layout! Learn more

10-Day Weather Forecast

Advertisements
Track Severe Weather on mobile